Time;durP1;ratioP1;P1;durP2;ratioP2;P2;SDS_P1;SDS_P2;PMS_P1;PMS_P2;Temp;Humidity;BMP_temperature;BMP_pressure;BME280_temperature;BME280_humidity;BME280_pressure;Samples;Min_cycle;Max_cycle;Signal;HPM_P1;HPM_P2
2021/12/22 00:02:20;;;;;;;8.27;6.22;;;;;;;;;;4780913;29;20104;-73
2021/12/22 00:04:49;;;;;;;8.82;6.93;;;;;;;;;;4788654;29;20089;-73
2021/12/22 00:07:17;;;;;;;11.57;7.90;;;;;;;;;;4785236;29;20501;-74
2021/12/22 00:09:44;;;;;;;11.00;8.15;;;;;;;;;;4789774;29;20055;-74
2021/12/22 00:12:12;;;;;;;8.85;6.55;;;;;;;;;;4781977;29;20120;-74
2021/12/22 00:14:39;;;;;;;7.82;5.88;;;;;;;;;;4786313;29;20051;-73
2021/12/22 00:17:07;;;;;;;8.75;6.18;;;;;;;;;;4786611;29;20066;-73
2021/12/22 00:19:34;;;;;;;11.90;8.55;;;;;;;;;;4784304;29;20077;-73
2021/12/22 00:22:04;;;;;;;11.07;7.75;;;;;;;;;;4787481;29;20698;-73
2021/12/22 00:24:34;;;;;;;10.50;7.78;;;;;;;;;;4766236;29;20055;-73
2021/12/22 00:27:02;;;;;;;9.18;6.63;;;;;;;;;;4771087;29;20170;-74
2021/12/22 00:29:30;;;;;;;8.93;6.47;;;;;;;;;;4754854;29;20445;-73
2021/12/22 00:32:10;;;;;;;8.50;6.63;;;;;;;;;;4769653;29;20087;-72
2021/12/22 00:34:46;;;;;;;9.93;7.20;;;;;;;;;;4773697;29;20108;-73
2021/12/22 00:37:14;;;;;;;9.38;6.93;;;;;;;;;;4757112;29;20494;-73
2021/12/22 00:39:43;;;;;;;10.32;8.23;;;;;;;;;;4786257;29;20042;-73
2021/12/22 00:42:12;;;;;;;9.70;6.93;;;;;;;;;;4770613;29;20166;-73
2021/12/22 00:44:40;;;;;;;10.25;8.15;;;;;;;;;;4792601;29;20077;-73
2021/12/22 00:47:09;;;;;;;8.57;6.75;;;;;;;;;;4781146;29;20360;-73
2021/12/22 00:49:37;;;;;;;9.88;7.22;;;;;;;;;;4783504;29;20055;-73
2021/12/22 00:52:06;;;;;;;9.32;7.00;;;;;;;;;;4781405;29;20566;-73
2021/12/22 00:54:33;;;;;;;7.38;5.90;;;;;;;;;;4782204;29;20043;-73
2021/12/22 00:57:04;;;;;;;10.00;6.32;;;;;;;;;;4774081;29;20051;-74
2021/12/22 00:59:35;;;;;;;8.17;7.00;;;;;;;;;;4781336;29;20062;-74
2021/12/22 01:02:05;;;;;;;8.00;6.40;;;;;;;;;;4787507;29;20581;-73
2021/12/22 01:04:32;;;;;;;9.65;6.65;;;;;;;;;;4793295;29;20105;-73
2021/12/22 01:07:00;;;;;;;7.50;6.00;;;;;;;;;;4793610;29;20560;-73
2021/12/22 01:09:27;;;;;;;7.57;5.65;;;;;;;;;;4784802;29;20531;-73
2021/12/22 01:11:54;;;;;;;7.55;5.88;;;;;;;;;;4778471;30;20100;-73
2021/12/22 01:14:22;;;;;;;12.63;9.45;;;;;;;;;;4779483;29;20043;-73
2021/12/22 01:16:51;;;;;;;8.80;6.72;;;;;;;;;;4775630;29;20078;-73
2021/12/22 01:19:27;;;;;;;15.18;8.77;;;;;;;;;;4799713;29;20051;-74
2021/12/22 01:22:03;;;;;;;9.82;7.18;;;;;;;;;;4784875;29;20039;-74
2021/12/22 01:24:33;;;;;;;9.73;6.72;;;;;;;;;;4794021;29;20050;-73
2021/12/22 01:27:07;;;;;;;10.10;8.77;;;;;;;;;;4785941;29;20039;-74
2021/12/22 01:29:36;;;;;;;10.82;8.73;;;;;;;;;;4793145;29;20147;-74
2021/12/22 01:32:04;;;;;;;10.00;6.85;;;;;;;;;;4776276;29;20051;-74
2021/12/22 01:34:32;;;;;;;9.80;7.82;;;;;;;;;;4793167;29;20836;-73
2021/12/22 01:36:59;;;;;;;8.73;7.10;;;;;;;;;;4788659;29;20039;-73
2021/12/22 01:39:27;;;;;;;9.38;7.88;;;;;;;;;;4802160;29;20057;-73
2021/12/22 01:41:55;;;;;;;9.05;7.35;;;;;;;;;;4789627;29;20092;-73
2021/12/22 01:44:30;;;;;;;8.93;7.38;;;;;;;;;;4795686;29;20127;-74
2021/12/22 01:49:49;;;;;;;8.77;6.30;;;;;;;;;;4781763;29;20067;-74
2021/12/22 01:52:18;;;;;;;13.93;9.48;;;;;;;;;;4783476;29;20071;-73
2021/12/22 01:54:50;;;;;;;7.85;6.55;;;;;;;;;;4789174;29;20465;-73
2021/12/22 01:57:17;;;;;;;;;;;;;;;;;;4793708;29;20464;-73
2021/12/22 01:59:46;;;;;;;9.23;6.88;;;;;;;;;;4797927;29;19976;-73
2021/12/22 02:02:15;;;;;;;11.38;8.80;;;;;;;;;;4791571;29;20116;-73
2021/12/22 02:04:42;;;;;;;10.93;8.40;;;;;;;;;;4781367;30;20474;-73
2021/12/22 02:07:11;;;;;;;7.63;6.35;;;;;;;;;;4786267;29;20136;-74
2021/12/22 02:12:15;;;;;;;11.25;7.80;;;;;;;;;;4784393;29;20123;-74
2021/12/22 02:14:43;;;;;;;6.63;5.30;;;;;;;;;;4782267;29;20071;-73
2021/12/22 02:17:12;;;;;;;8.48;6.65;;;;;;;;;;4790891;29;20382;-72
2021/12/22 02:19:39;;;;;;;9.30;7.10;;;;;;;;;;4777155;30;20036;-73
2021/12/22 02:22:10;;;;;;;9.80;7.75;;;;;;;;;;4782239;30;20047;-73
2021/12/22 02:24:38;;;;;;;9.45;6.93;;;;;;;;;;4779333;29;20138;-73
2021/12/22 02:27:12;;;;;;;11.88;9.32;;;;;;;;;;4785449;29;20517;-73
2021/12/22 02:29:41;;;;;;;8.10;5.97;;;;;;;;;;4793649;29;20051;-73
2021/12/22 02:32:25;;;;;;;7.78;5.40;;;;;;;;;;4782749;29;20074;-73
2021/12/22 02:35:00;;;;;;;8.27;6.32;;;;;;;;;;4795693;29;20084;-73
2021/12/22 02:37:27;;;;;;;6.50;5.63;;;;;;;;;;4767545;29;20451;-73
2021/12/22 02:40:01;;;;;;;10.15;6.82;;;;;;;;;;4780449;29;20501;-73
2021/12/22 02:42:33;;;;;;;7.68;5.72;;;;;;;;;;4768785;29;20513;-73
2021/12/22 02:45:07;;;;;;;11.98;6.88;;;;;;;;;;4782282;30;20051;-73
2021/12/22 02:47:34;;;;;;;9.77;6.18;;;;;;;;;;4748045;30;20079;-73
2021/12/22 02:50:03;;;;;;;9.27;6.93;;;;;;;;;;4770610;30;20139;-72
2021/12/22 02:52:40;;;;;;;11.20;8.30;;;;;;;;;;4756148;30;20096;-73
2021/12/22 02:55:08;;;;;;;9.65;6.15;;;;;;;;;;4754251;29;20059;-73
2021/12/22 02:57:43;;;;;;;10.10;6.93;;;;;;;;;;4789077;29;20106;-73
2021/12/22 03:03:27;;;;;;;9.23;7.05;;;;;;;;;;4774005;29;20063;-73
2021/12/22 03:05:56;;;;;;;8.20;6.35;;;;;;;;;;4754752;30;20063;-73
2021/12/22 03:08:24;;;;;;;10.07;6.57;;;;;;;;;;4794730;29;20120;-73
2021/12/22 03:10:53;;;;;;;8.45;7.40;;;;;;;;;;4776223;30;20082;-73
2021/12/22 03:13:21;;;;;;;7.93;6.30;;;;;;;;;;4790274;29;20088;-73
2021/12/22 03:15:48;;;;;;;7.38;5.82;;;;;;;;;;4789881;29;20708;-73
2021/12/22 03:18:17;;;;;;;8.25;6.10;;;;;;;;;;4782752;29;20043;-74
2021/12/22 03:20:50;;;;;;;8.43;6.68;;;;;;;;;;4796073;29;20063;-73
2021/12/22 03:23:20;;;;;;;6.18;5.53;;;;;;;;;;4798486;29;20047;-73
2021/12/22 03:25:47;;;;;;;7.00;5.70;;;;;;;;;;4794845;29;20051;-73
2021/12/22 03:28:15;;;;;;;8.90;5.95;;;;;;;;;;4778153;29;20108;-73
2021/12/22 03:30:42;;;;;;;10.40;8.00;;;;;;;;;;4782815;30;20051;-73
2021/12/22 03:33:10;;;;;;;9.82;6.68;;;;;;;;;;4794053;29;20080;-73
2021/12/22 03:35:39;;;;;;;10.65;6.05;;;;;;;;;;4798145;29;20488;-73
2021/12/22 03:38:06;;;;;;;9.45;7.05;;;;;;;;;;4797023;29;20095;-73
2021/12/22 03:40:34;;;;;;;10.10;6.82;;;;;;;;;;4797287;29;20047;-73
2021/12/22 03:43:01;;;;;;;6.38;5.22;;;;;;;;;;4788491;29;20053;-73
2021/12/22 03:45:29;;;;;;;8.93;7.78;;;;;;;;;;4789172;29;20055;-73
2021/12/22 03:47:56;;;;;;;7.78;5.90;;;;;;;;;;4780739;29;20051;-73
2021/12/22 03:50:24;;;;;;;7.40;6.35;;;;;;;;;;4789008;29;20093;-73
2021/12/22 03:52:51;;;;;;;5.97;5.35;;;;;;;;;;4802667;29;20576;-74
2021/12/22 03:55:19;;;;;;;7.55;5.82;;;;;;;;;;4791924;29;20040;-73
2021/12/22 03:57:47;;;;;;;9.18;6.32;;;;;;;;;;4833630;24;20118;-80
2021/12/22 04:00:15;;;;;;;5.85;5.25;;;;;;;;;;4820695;29;20042;-81
2021/12/22 04:02:43;;;;;;;6.32;5.10;;;;;;;;;;4817453;29;20395;-80
2021/12/22 04:05:11;;;;;;;6.90;5.43;;;;;;;;;;4823321;29;20051;-81
2021/12/22 04:07:38;;;;;;;7.68;6.32;;;;;;;;;;4795902;29;20085;-81
2021/12/22 04:10:19;;;;;;;7.93;6.10;;;;;;;;;;4786661;29;20051;-81
2021/12/22 04:12:47;;;;;;;6.57;5.82;;;;;;;;;;4805205;29;20057;-80
2021/12/22 04:15:15;;;;;;;6.50;5.82;;;;;;;;;;4793671;29;20387;-80
2021/12/22 04:17:42;;;;;;;9.68;6.55;;;;;;;;;;4791248;29;20045;-81
2021/12/22 04:20:10;;;;;;;8.13;5.03;;;;;;;;;;4810235;29;20054;-80
2021/12/22 04:22:38;;;;;;;8.80;6.47;;;;;;;;;;4815467;29;20453;-80
2021/12/22 04:25:07;;;;;;;7.35;5.50;;;;;;;;;;4823935;29;20129;-80
2021/12/22 04:27:35;;;;;;;7.28;5.32;;;;;;;;;;4808960;29;20050;-80
2021/12/22 04:30:03;;;;;;;6.45;4.80;;;;;;;;;;4808046;29;20047;-80
2021/12/22 04:32:30;;;;;;;7.78;5.75;;;;;;;;;;4793661;29;20066;-79
2021/12/22 04:34:57;;;;;;;7.50;5.75;;;;;;;;;;4808957;29;20061;-80
2021/12/22 04:37:25;;;;;;;11.63;7.43;;;;;;;;;;4811574;29;20465;-80
2021/12/22 04:39:52;;;;;;;6.50;5.25;;;;;;;;;;4822269;29;20057;-80
2021/12/22 04:42:19;;;;;;;6.47;5.30;;;;;;;;;;4820443;29;20042;-79
2021/12/22 04:44:50;;;;;;;6.65;5.72;;;;;;;;;;4833317;29;20056;-80
2021/12/22 04:47:17;;;;;;;7.57;5.15;;;;;;;;;;4819993;29;20102;-79
2021/12/22 04:49:44;;;;;;;7.50;5.28;;;;;;;;;;4824892;29;20046;-80
2021/12/22 04:52:16;;;;;;;7.72;6.45;;;;;;;;;;4833206;29;20050;-81
2021/12/22 04:55:17;;;;;;;;;;;;;;;;;;4804290;29;20039;-81
2021/12/22 04:57:37;;;;;;;6.82;5.85;;;;;;;;;;4802175;29;19925;-80
2021/12/22 05:00:06;;;;;;;7.22;5.22;;;;;;;;;;4805034;29;20058;-80
2021/12/22 05:02:36;;;;;;;7.03;5.57;;;;;;;;;;4809818;29;20141;-81
2021/12/22 05:05:04;;;;;;;6.50;5.35;;;;;;;;;;4802735;29;20308;-80
2021/12/22 05:07:31;;;;;;;8.55;7.65;;;;;;;;;;4812188;29;20053;-80
2021/12/22 05:09:58;;;;;;;7.47;5.55;;;;;;;;;;4813688;29;20063;-81
2021/12/22 05:12:26;;;;;;;6.80;5.38;;;;;;;;;;4810781;29;20520;-80
2021/12/22 05:14:53;;;;;;;8.88;6.80;;;;;;;;;;4805373;29;20051;-81
2021/12/22 05:17:26;;;;;;;7.82;5.90;;;;;;;;;;4811609;29;20074;-80
2021/12/22 05:19:54;;;;;;;6.72;5.07;;;;;;;;;;4806291;29;20427;-80
2021/12/22 05:22:21;;;;;;;7.00;5.90;;;;;;;;;;4811508;29;20139;-80
2021/12/22 05:24:48;;;;;;;7.03;5.63;;;;;;;;;;4829508;29;20042;-80
2021/12/22 05:27:16;;;;;;;6.65;5.53;;;;;;;;;;4813607;29;20055;-80
2021/12/22 05:29:43;;;;;;;5.22;4.70;;;;;;;;;;4802465;29;20046;-80
2021/12/22 05:32:10;;;;;;;8.60;5.88;;;;;;;;;;4802975;29;20051;-81
2021/12/22 05:34:38;;;;;;;6.07;5.38;;;;;;;;;;4807460;29;20083;-80
2021/12/22 05:37:05;;;;;;;10.32;6.65;;;;;;;;;;4824593;29;20061;-80
2021/12/22 05:39:32;;;;;;;7.55;5.47;;;;;;;;;;4811840;29;20055;-80
2021/12/22 05:42:01;;;;;;;7.53;6.32;;;;;;;;;;4822336;29;20039;-81
2021/12/22 05:44:28;;;;;;;6.78;6.00;;;;;;;;;;4820135;29;20067;-80
2021/12/22 05:46:56;;;;;;;6.25;5.15;;;;;;;;;;4808568;29;20103;-80
2021/12/22 05:49:23;;;;;;;7.03;5.45;;;;;;;;;;4807798;29;20057;-80
2021/12/22 05:51:50;;;;;;;9.18;6.60;;;;;;;;;;4805450;29;20051;-79
2021/12/22 05:54:18;;;;;;;9.65;6.35;;;;;;;;;;4820805;29;20051;-80
2021/12/22 05:56:45;;;;;;;6.28;5.20;;;;;;;;;;4804273;29;20122;-80
2021/12/22 05:59:12;;;;;;;8.02;5.40;;;;;;;;;;4808325;29;20181;-80
2021/12/22 06:01:39;;;;;;;6.32;5.05;;;;;;;;;;4808809;29;20051;-80
2021/12/22 06:04:07;;;;;;;6.68;5.68;;;;;;;;;;4788099;29;20456;-80
2021/12/22 06:06:35;;;;;;;8.57;6.60;;;;;;;;;;4823305;29;20112;-80
2021/12/22 06:09:03;;;;;;;8.48;6.15;;;;;;;;;;4803887;29;20054;-80
2021/12/22 06:11:31;;;;;;;8.70;6.10;;;;;;;;;;4810703;29;20054;-80
2021/12/22 06:13:59;;;;;;;12.13;5.93;;;;;;;;;;4816670;29;20050;-79
2021/12/22 06:16:29;;;;;;;10.98;7.78;;;;;;;;;;4810071;29;20500;-81
2021/12/22 06:19:04;;;;;;;8.38;5.78;;;;;;;;;;4830253;29;20125;-81
2021/12/22 06:21:31;;;;;;;8.85;7.85;;;;;;;;;;4806575;29;20051;-80
2021/12/22 06:23:59;;;;;;;10.23;7.80;;;;;;;;;;4808496;29;20058;-80
2021/12/22 06:26:26;;;;;;;9.30;7.50;;;;;;;;;;4812157;29;20054;-80
2021/12/22 06:28:53;;;;;;;11.27;8.05;;;;;;;;;;4822067;29;20057;-80
2021/12/22 06:31:21;;;;;;;9.45;7.13;;;;;;;;;;4823706;29;20050;-80
2021/12/22 06:33:48;;;;;;;11.85;6.38;;;;;;;;;;4813453;29;20516;-81
2021/12/22 06:36:17;;;;;;;11.13;8.63;;;;;;;;;;4835486;29;20039;-81
2021/12/22 06:38:45;;;;;;;12.45;8.88;;;;;;;;;;4827370;29;20126;-78
2021/12/22 06:41:12;;;;;;;14.40;10.20;;;;;;;;;;4818357;29;20049;-80
2021/12/22 06:43:39;;;;;;;19.58;11.32;;;;;;;;;;4813533;29;20054;-78
2021/12/22 06:46:09;;;;;;;12.25;9.52;;;;;;;;;;4817467;29;20170;-80
2021/12/22 06:48:37;;;;;;;27.92;15.70;;;;;;;;;;4810370;29;20726;-79
2021/12/22 06:51:04;;;;;;;32.65;17.65;;;;;;;;;;4810959;29;20049;-79
2021/12/22 06:53:34;;;;;;;27.65;15.05;;;;;;;;;;4808433;29;20093;-82
2021/12/22 06:56:02;;;;;;;13.05;9.20;;;;;;;;;;4809122;29;20440;-80
2021/12/22 06:58:29;;;;;;;8.80;7.18;;;;;;;;;;4807776;29;20043;-81
2021/12/22 07:00:57;;;;;;;7.85;6.22;;;;;;;;;;4805050;29;20047;-80
2021/12/22 07:03:24;;;;;;;7.82;6.20;;;;;;;;;;4814554;29;20050;-81
2021/12/22 07:05:52;;;;;;;7.45;6.03;;;;;;;;;;4805531;29;20062;-81
2021/12/22 07:08:19;;;;;;;8.25;6.40;;;;;;;;;;4812234;29;20074;-81
2021/12/22 07:10:47;;;;;;;7.28;6.57;;;;;;;;;;4814112;29;20055;-81
2021/12/22 07:13:39;;;;;;;9.32;7.45;;;;;;;;;;4816874;29;20061;-83
2021/12/22 07:16:06;;;;;;;8.25;6.28;;;;;;;;;;4821630;29;20050;-74
2021/12/22 07:18:34;;;;;;;15.00;8.05;;;;;;;;;;4818154;29;20066;-73
2021/12/22 07:21:03;;;;;;;13.98;7.05;;;;;;;;;;4803707;29;20071;-72
2021/12/22 07:23:30;;;;;;;12.55;9.30;;;;;;;;;;4801102;29;20047;-74
2021/12/22 07:25:57;;;;;;;11.65;8.85;;;;;;;;;;4802597;29;20051;-72
2021/12/22 07:28:25;;;;;;;8.75;7.82;;;;;;;;;;4804079;29;20078;-71
2021/12/22 07:30:52;;;;;;;10.73;8.27;;;;;;;;;;4796108;29;20469;-71
2021/12/22 07:33:20;;;;;;;10.70;8.38;;;;;;;;;;4810493;29;20464;-70
2021/12/22 07:35:47;;;;;;;9.43;7.32;;;;;;;;;;4799038;29;20116;-72
2021/12/22 07:38:24;;;;;;;9.52;7.72;;;;;;;;;;4795835;29;20093;-70
2021/12/22 07:40:52;;;;;;;10.57;7.95;;;;;;;;;;4797195;29;20074;-74
2021/12/22 07:43:20;;;;;;;7.65;6.18;;;;;;;;;;4817600;29;20112;-71
2021/12/22 07:45:47;;;;;;;12.75;9.38;;;;;;;;;;4817657;29;20154;-74
2021/12/22 07:48:15;;;;;;;11.38;9.10;;;;;;;;;;4816428;29;20061;-71
2021/12/22 07:50:43;;;;;;;12.52;9.30;;;;;;;;;;4800108;29;20070;-73
2021/12/22 07:53:10;;;;;;;12.90;10.43;;;;;;;;;;4824343;29;20531;-73
2021/12/22 07:55:38;;;;;;;10.93;9.25;;;;;;;;;;4797124;29;20042;-71
2021/12/22 07:58:09;;;;;;;13.85;10.20;;;;;;;;;;4800323;29;20078;-72
2021/12/22 08:00:37;;;;;;;10.98;8.55;;;;;;;;;;4814162;29;20046;-71
2021/12/22 08:03:06;;;;;;;14.38;9.50;;;;;;;;;;4815283;29;20046;-73
2021/12/22 08:05:53;;;;;;;13.52;9.23;;;;;;;;;;4816883;29;20496;-74
2021/12/22 08:08:21;;;;;;;12.20;9.43;;;;;;;;;;4816745;29;20049;-74
2021/12/22 08:10:49;;;;;;;13.05;10.10;;;;;;;;;;4814923;29;20054;-73
2021/12/22 08:13:16;;;;;;;12.85;10.93;;;;;;;;;;4816300;29;20508;-71
2021/12/22 08:15:44;;;;;;;11.70;8.55;;;;;;;;;;4783754;29;20046;-73
2021/12/22 08:18:12;;;;;;;11.45;9.00;;;;;;;;;;4818632;29;20046;-72
2021/12/22 08:20:39;;;;;;;15.63;10.10;;;;;;;;;;4805217;29;20070;-71
2021/12/22 08:23:07;;;;;;;10.48;8.05;;;;;;;;;;4801576;29;20095;-71
2021/12/22 08:25:34;;;;;;;12.60;10.18;;;;;;;;;;4800881;29;20082;-72
2021/12/22 08:28:02;;;;;;;15.40;10.27;;;;;;;;;;4800757;29;20065;-72
2021/12/22 08:30:29;;;;;;;15.13;9.30;;;;;;;;;;4799946;29;20066;-71
2021/12/22 08:32:59;;;;;;;10.27;7.95;;;;;;;;;;4815049;29;20051;-71
2021/12/22 08:35:29;;;;;;;9.00;6.93;;;;;;;;;;4799944;29;20107;-71
2021/12/22 08:40:42;;;;;;;10.50;8.55;;;;;;;;;;4803593;29;20129;-71
2021/12/22 08:43:10;;;;;;;13.10;7.70;;;;;;;;;;4784828;29;20111;-71
2021/12/22 08:45:37;;;;;;;12.05;8.38;;;;;;;;;;4799729;29;20147;-73
2021/12/22 08:48:05;;;;;;;10.65;8.32;;;;;;;;;;4801856;29;20051;-71
2021/12/22 08:50:32;;;;;;;11.25;8.73;;;;;;;;;;4799056;29;20174;-71
2021/12/22 08:53:00;;;;;;;13.85;10.27;;;;;;;;;;4798829;29;20119;-73
2021/12/22 08:55:27;;;;;;;11.57;9.80;;;;;;;;;;4799194;29;20089;-71
2021/12/22 08:57:54;;;;;;;13.45;10.05;;;;;;;;;;4800106;29;20097;-71
2021/12/22 09:00:22;;;;;;;15.23;10.27;;;;;;;;;;4800604;29;20042;-71
2021/12/22 09:02:49;;;;;;;13.00;9.38;;;;;;;;;;4802809;29;20179;-71
2021/12/22 09:05:19;;;;;;;14.18;11.57;;;;;;;;;;4801734;29;20271;-72
2021/12/22 09:07:46;;;;;;;15.10;11.90;;;;;;;;;;4799518;29;20326;-72
2021/12/22 09:10:14;;;;;;;12.63;9.90;;;;;;;;;;4797330;29;20504;-72
2021/12/22 09:12:42;;;;;;;14.05;9.27;;;;;;;;;;4799540;29;20074;-72
2021/12/22 09:15:10;;;;;;;14.73;9.60;;;;;;;;;;4799454;29;20078;-71
2021/12/22 09:17:37;;;;;;;10.88;8.40;;;;;;;;;;4799229;29;20073;-71
2021/12/22 09:20:05;;;;;;;9.85;8.38;;;;;;;;;;4798219;29;20059;-72
2021/12/22 09:22:32;;;;;;;11.07;8.48;;;;;;;;;;4798293;29;20426;-72
2021/12/22 09:24:59;;;;;;;9.68;7.72;;;;;;;;;;4799214;29;20206;-73
2021/12/22 09:27:27;;;;;;;8.00;6.90;;;;;;;;;;4801922;29;20176;-71
2021/12/22 09:29:55;;;;;;;10.15;7.22;;;;;;;;;;4797471;29;20054;-71
2021/12/22 09:32:23;;;;;;;9.70;6.93;;;;;;;;;;4800308;29;20121;-71
2021/12/22 09:34:51;;;;;;;9.57;6.90;;;;;;;;;;4798802;29;20401;-72
2021/12/22 09:37:18;;;;;;;8.52;7.63;;;;;;;;;;4799263;29;20318;-71
2021/12/22 09:39:46;;;;;;;8.50;6.80;;;;;;;;;;4798565;29;20487;-73
2021/12/22 09:42:13;;;;;;;11.13;7.55;;;;;;;;;;4801833;29;20126;-72
2021/12/22 09:44:46;;;;;;;11.57;7.70;;;;;;;;;;4797147;29;20051;-74
2021/12/22 09:47:27;;;;;;;9.10;7.32;;;;;;;;;;4798841;29;20066;-74
2021/12/22 09:50:07;;;;;;;9.60;7.65;;;;;;;;;;4798886;29;20047;-74
2021/12/22 09:52:35;;;;;;;11.60;7.43;;;;;;;;;;4802494;29;20110;-71
2021/12/22 09:55:03;;;;;;;11.35;7.55;;;;;;;;;;4801360;29;20067;-71
2021/12/22 09:57:31;;;;;;;8.60;7.03;;;;;;;;;;4804042;29;20517;-72
2021/12/22 10:00:00;;;;;;;9.93;7.82;;;;;;;;;;4805259;29;20104;-71
2021/12/22 10:02:29;;;;;;;15.27;9.00;;;;;;;;;;4821095;29;20130;-71
2021/12/22 10:04:58;;;;;;;10.75;7.75;;;;;;;;;;4802353;29;20061;-71
2021/12/22 10:07:28;;;;;;;8.18;7.15;;;;;;;;;;4802679;29;20532;-71
2021/12/22 10:09:56;;;;;;;11.13;7.28;;;;;;;;;;4785853;29;20108;-71
2021/12/22 10:12:24;;;;;;;10.50;8.32;;;;;;;;;;4798062;29;20047;-70
2021/12/22 10:14:52;;;;;;;9.27;7.20;;;;;;;;;;4802804;29;20074;-71
2021/12/22 10:17:27;;;;;;;9.80;7.85;;;;;;;;;;4804321;29;20051;-71
2021/12/22 10:19:57;;;;;;;8.73;6.80;;;;;;;;;;4800655;29;20053;-71
2021/12/22 10:22:50;;;;;;;8.98;7.28;;;;;;;;;;4801514;29;20045;-71
2021/12/22 10:25:20;;;;;;;9.25;6.43;;;;;;;;;;4806353;29;20142;-71
2021/12/22 10:28:02;;;;;;;9.50;7.40;;;;;;;;;;4804007;29;20104;-71
2021/12/22 10:30:38;;;;;;;9.88;8.50;;;;;;;;;;4810498;29;20127;-71
2021/12/22 10:33:08;;;;;;;9.52;7.13;;;;;;;;;;4803884;29;20061;-71
2021/12/22 10:35:38;;;;;;;9.48;7.18;;;;;;;;;;4801943;29;20047;-72
2021/12/22 10:38:06;;;;;;;9.43;7.53;;;;;;;;;;4800780;29;20047;-71
2021/12/22 10:40:38;;;;;;;9.80;7.88;;;;;;;;;;4802220;29;20448;-72
2021/12/22 10:43:06;;;;;;;;;;;;;;;;;;4802900;29;20469;-71
2021/12/22 10:45:35;;;;;;;9.68;7.22;;;;;;;;;;4802385;29;20012;-71
2021/12/22 10:50:53;;;;;;;7.65;6.85;;;;;;;;;;4801902;29;20100;-74
2021/12/22 10:53:21;;;;;;;7.55;6.25;;;;;;;;;;4801159;29;20170;-72
2021/12/22 10:55:50;;;;;;;13.80;10.10;;;;;;;;;;4802153;29;20493;-72
2021/12/22 10:58:22;;;;;;;8.13;6.65;;;;;;;;;;4799488;29;20121;-74
2021/12/22 11:01:17;;;;;;;10.05;7.20;;;;;;;;;;4798654;29;20123;-72
2021/12/22 11:03:52;;;;;;;7.10;6.40;;;;;;;;;;4800634;29;20512;-72
2021/12/22 11:06:23;;;;;;;8.13;6.00;;;;;;;;;;4800884;29;20055;-72
2021/12/22 11:09:05;;;;;;;6.65;5.35;;;;;;;;;;4799718;29;20097;-72
2021/12/22 11:11:37;;;;;;;6.75;5.45;;;;;;;;;;4805633;29;20125;-74
2021/12/22 11:14:14;;;;;;;5.32;4.82;;;;;;;;;;4817668;29;20047;-74
2021/12/22 11:16:50;;;;;;;4.50;4.00;;;;;;;;;;4823153;29;20424;-72
2021/12/22 11:19:18;;;;;;;4.55;4.13;;;;;;;;;;4817210;29;20059;-74
2021/12/22 11:22:03;;;;;;;5.97;4.13;;;;;;;;;;4803003;29;20508;-73
2021/12/22 11:24:31;;;;;;;4.57;3.90;;;;;;;;;;4816215;29;20104;-72
2021/12/22 11:27:00;;;;;;;7.78;4.22;;;;;;;;;;4821155;29;20061;-72
2021/12/22 11:29:28;;;;;;;4.80;3.53;;;;;;;;;;4817114;29;20063;-72
2021/12/22 11:31:56;;;;;;;4.00;3.67;;;;;;;;;;4816869;29;20046;-75
2021/12/22 11:34:24;;;;;;;5.18;3.63;;;;;;;;;;4801461;29;20137;-73
2021/12/22 11:36:51;;;;;;;3.67;3.38;;;;;;;;;;4818265;29;20070;-73
2021/12/22 11:39:19;;;;;;;5.18;3.70;;;;;;;;;;4817520;29;20167;-75
2021/12/22 11:41:58;;;;;;;6.13;4.68;;;;;;;;;;4816784;29;20508;-73
2021/12/22 11:44:27;;;;;;;5.25;3.60;;;;;;;;;;4801625;29;20137;-72
2021/12/22 11:46:56;;;;;;;2.97;2.42;;;;;;;;;;4799726;29;21029;-73
2021/12/22 11:49:24;;;;;;;7.78;4.32;;;;;;;;;;4801416;29;20080;-72
2021/12/22 11:51:51;;;;;;;3.83;3.42;;;;;;;;;;4797986;29;20130;-73
2021/12/22 11:54:25;;;;;;;4.28;3.88;;;;;;;;;;4800275;29;20561;-72
2021/12/22 11:56:54;;;;;;;3.60;3.30;;;;;;;;;;4800486;29;20057;-72
2021/12/22 11:59:37;;;;;;;4.38;3.97;;;;;;;;;;4800736;29;20051;-75
2021/12/22 12:02:19;;;;;;;6.40;4.03;;;;;;;;;;4800420;29;20043;-73
2021/12/22 12:04:48;;;;;;;4.15;2.97;;;;;;;;;;4800529;29;20047;-72
2021/12/22 12:07:35;;;;;;;4.38;3.97;;;;;;;;;;4803362;29;20066;-74
2021/12/22 12:10:21;;;;;;;9.40;3.75;;;;;;;;;;4811670;29;20097;-75
2021/12/22 12:12:50;;;;;;;7.15;3.53;;;;;;;;;;4813977;29;20082;-75
2021/12/22 12:15:53;;;;;;;4.88;3.65;;;;;;;;;;4815380;29;20114;-73
2021/12/22 12:21:44;;;;;;;8.63;3.45;;;;;;;;;;4814973;29;20080;-73
2021/12/22 12:24:30;;;;;;;4.95;3.88;;;;;;;;;;4798506;29;20368;-73
2021/12/22 12:26:58;;;;;;;2.15;2.03;;;;;;;;;;4820008;29;20057;-73
2021/12/22 12:29:44;;;;;;;3.65;3.30;;;;;;;;;;4814121;29;20050;-74
2021/12/22 12:32:30;;;;;;;4.88;4.07;;;;;;;;;;4817556;29;20054;-74
2021/12/22 12:35:16;;;;;;;5.68;4.78;;;;;;;;;;4814419;29;20046;-74
2021/12/22 12:37:58;;;;;;;5.50;4.70;;;;;;;;;;4816183;29;20631;-72
2021/12/22 12:40:45;;;;;;;5.47;4.45;;;;;;;;;;4817834;29;20077;-72
2021/12/22 12:43:13;;;;;;;4.28;3.88;;;;;;;;;;4815865;29;20504;-75
2021/12/22 12:45:42;;;;;;;8.25;4.50;;;;;;;;;;4816930;29;20355;-72
2021/12/22 12:48:25;;;;;;;6.13;4.97;;;;;;;;;;4816508;29;20565;-72
2021/12/22 12:51:12;;;;;;;4.72;4.07;;;;;;;;;;4805380;29;20141;-72
2021/12/22 12:53:41;;;;;;;6.30;4.30;;;;;;;;;;4798542;29;20125;-72
2021/12/22 12:56:09;;;;;;;3.35;3.05;;;;;;;;;;4799263;29;20461;-72
2021/12/22 12:58:57;;;;;;;7.85;4.95;;;;;;;;;;4800641;29;20467;-72
2021/12/22 13:01:43;;;;;;;3.97;3.58;;;;;;;;;;4800242;29;20092;-72
2021/12/22 13:04:22;;;;;;;8.52;4.50;;;;;;;;;;4801150;29;20042;-72
2021/12/22 13:06:51;;;;;;;4.65;4.15;;;;;;;;;;4799783;29;20167;-74
2021/12/22 13:09:21;;;;;;;4.93;4.43;;;;;;;;;;4800225;29;20081;-73
2021/12/22 13:12:03;;;;;;;5.88;4.80;;;;;;;;;;4800422;29;20038;-72
2021/12/22 13:17:22;;;;;;;;;;;;;;;;;;4801430;29;20472;-73
2021/12/22 13:19:53;;;;;;;3.88;3.45;;;;;;;;;;4802042;29;19951;-74
2021/12/22 13:22:22;;;;;;;5.22;4.28;;;;;;;;;;4799936;29;20078;-73
2021/12/22 13:25:04;;;;;;;5.88;4.30;;;;;;;;;;4798149;29;20086;-72
2021/12/22 13:27:31;;;;;;;9.55;4.75;;;;;;;;;;4795817;29;20469;-72
2021/12/22 13:30:06;;;;;;;5.30;4.80;;;;;;;;;;4797043;29;20350;-71
2021/12/22 13:32:34;;;;;;;6.07;4.18;;;;;;;;;;4800828;29;20061;-72
2021/12/22 13:35:02;;;;;;;5.57;4.68;;;;;;;;;;4801786;29;20478;-73
2021/12/22 13:37:30;;;;;;;9.18;5.43;;;;;;;;;;4802430;29;20092;-74
2021/12/22 13:39:58;;;;;;;5.43;4.95;;;;;;;;;;4799238;29;20043;-75
2021/12/22 13:42:25;;;;;;;6.72;5.32;;;;;;;;;;4799435;29;20042;-72
2021/12/22 13:44:52;;;;;;;5.20;4.65;;;;;;;;;;4803448;29;20070;-72
2021/12/22 13:47:20;;;;;;;4.85;4.32;;;;;;;;;;4803353;29;20062;-71
2021/12/22 13:49:49;;;;;;;6.65;5.70;;;;;;;;;;4803869;29;20061;-71
2021/12/22 13:52:16;;;;;;;5.20;4.70;;;;;;;;;;4802337;29;20082;-71
2021/12/22 13:54:47;;;;;;;5.82;4.80;;;;;;;;;;4801847;29;20385;-72
2021/12/22 13:57:15;;;;;;;5.57;5.00;;;;;;;;;;4804140;29;20038;-73
2021/12/22 13:59:46;;;;;;;6.50;5.50;;;;;;;;;;4801552;29;20535;-73
2021/12/22 14:02:13;;;;;;;6.03;5.43;;;;;;;;;;4802020;29;20112;-73
2021/12/22 14:04:41;;;;;;;7.25;6.30;;;;;;;;;;4806537;29;20117;-72
2021/12/22 14:07:14;;;;;;;5.97;5.38;;;;;;;;;;4795097;29;20177;-72
2021/12/22 14:09:49;;;;;;;7.43;5.85;;;;;;;;;;4798422;29;20524;-73
2021/12/22 14:12:27;;;;;;;6.47;5.10;;;;;;;;;;4800347;29;20047;-75
2021/12/22 14:15:01;;;;;;;7.78;5.25;;;;;;;;;;4812205;29;20047;-75
2021/12/22 14:17:32;;;;;;;8.65;4.82;;;;;;;;;;4802193;29;20049;-75
2021/12/22 14:20:05;;;;;;;5.32;4.43;;;;;;;;;;4803065;29;20549;-72
2021/12/22 14:22:34;;;;;;;6.88;5.43;;;;;;;;;;4802691;29;20077;-73
2021/12/22 14:25:02;;;;;;;8.00;5.90;;;;;;;;;;4799513;29;20043;-73
2021/12/22 14:27:34;;;;;;;7.05;5.97;;;;;;;;;;4803905;29;20058;-73
2021/12/22 14:30:02;;;;;;;6.97;5.80;;;;;;;;;;4802956;29;20481;-72
2021/12/22 14:32:34;;;;;;;7.35;6.20;;;;;;;;;;4803937;29;20078;-73
2021/12/22 14:35:10;;;;;;;10.20;7.32;;;;;;;;;;4804071;29;20047;-73
2021/12/22 14:37:42;;;;;;;8.63;7.28;;;;;;;;;;4786179;29;20557;-75
2021/12/22 14:40:14;;;;;;;15.35;9.25;;;;;;;;;;4797087;29;20039;-73
2021/12/22 14:42:41;;;;;;;11.90;9.35;;;;;;;;;;4794519;29;20122;-72
2021/12/22 14:45:17;;;;;;;15.43;11.85;;;;;;;;;;4795550;29;20545;-72
2021/12/22 14:47:45;;;;;;;22.45;15.30;;;;;;;;;;4793688;29;20461;-72
2021/12/22 14:50:14;;;;;;;29.15;16.70;;;;;;;;;;4801263;29;20121;-72
2021/12/22 14:52:57;;;;;;;27.05;16.77;;;;;;;;;;4799000;29;20081;-73
2021/12/22 14:55:34;;;;;;;19.17;13.50;;;;;;;;;;4801583;29;20752;-72
2021/12/22 14:58:02;;;;;;;15.13;11.30;;;;;;;;;;4801544;29;20130;-72
2021/12/22 15:00:29;;;;;;;17.48;12.55;;;;;;;;;;4801430;29;20074;-72
2021/12/22 15:02:57;;;;;;;22.35;13.55;;;;;;;;;;4803098;29;20054;-72
2021/12/22 15:05:24;;;;;;;21.00;13.40;;;;;;;;;;4804177;29;20039;-73
2021/12/22 15:07:52;;;;;;;15.63;10.90;;;;;;;;;;4806129;29;20075;-72
2021/12/22 15:10:19;;;;;;;13.82;9.82;;;;;;;;;;4798678;29;20080;-73
2021/12/22 15:12:47;;;;;;;17.08;10.70;;;;;;;;;;4804015;29;20313;-72
2021/12/22 15:15:14;;;;;;;20.52;14.18;;;;;;;;;;4803011;29;20079;-72
2021/12/22 15:17:42;;;;;;;21.52;15.13;;;;;;;;;;4803974;29;20488;-72